Harlow, United Kingdom
Current Conditions -  °F | °C
As of 9:20 AM on Sunday 21 Dec 2014 (Local Time) from EGSS Reporting Station
Overcast Overcast  
Wind Chill: 37°   Ceiling: 400
Heat Index: 43°   Visibility: 4mi
Dew Point: 43°   Wind: 12mph
Humidity: 100%   Direction: 230°SW
Pressure: 30.33"   Gusts: NA
Location:  51.78°N, 0.11°E
Report Text: EGSS 210920Z 23010KT 6000 BKN004 OVC007 06/06 Q1027
Loading
Personal Weather Stations






























Interactive Weather Map New forecast layout! Learn more

10-Day Weather Forecast

Advertisements
Track Severe Weather on mobile